sensor_id;sensor_type;location;lat;lon;timestamp;P1;durP1;ratioP1;P2;durP2;ratioP2
25331;SDS011;13284;52.748;13.452;2022-07-18T00:00:32;2.33;;;2.13;;
25331;SDS011;13284;52.748;13.452;2022-07-18T00:02:58;2.90;;;2.70;;
25331;SDS011;13284;52.748;13.452;2022-07-18T00:05:23;2.77;;;2.10;;
25331;SDS011;13284;52.748;13.452;2022-07-18T00:07:49;5.73;;;2.50;;
25331;SDS011;13284;52.748;13.452;2022-07-18T00:10:15;3.27;;;3.07;;
25331;SDS011;13284;52.748;13.452;2022-07-18T00:12:41;2.70;;;2.40;;
25331;SDS011;13284;52.748;13.452;2022-07-18T00:15:06;3.30;;;2.70;;
25331;SDS011;13284;52.748;13.452;2022-07-18T00:17:32;2.37;;;2.17;;
25331;SDS011;13284;52.748;13.452;2022-07-18T00:19:58;2.83;;;2.40;;
25331;SDS011;13284;52.748;13.452;2022-07-18T00:22:23;2.20;;;1.77;;
25331;SDS011;13284;52.748;13.452;2022-07-18T00:24:49;3.30;;;2.87;;
25331;SDS011;13284;52.748;13.452;2022-07-18T00:27:14;2.30;;;2.20;;
25331;SDS011;13284;52.748;13.452;2022-07-18T00:29:40;3.03;;;2.30;;
25331;SDS011;13284;52.748;13.452;2022-07-18T00:32:07;3.20;;;2.50;;
25331;SDS011;13284;52.748;13.452;2022-07-18T00:34:33;4.40;;;2.57;;
25331;SDS011;13284;52.748;13.452;2022-07-18T00:36:59;2.57;;;2.37;;
25331;SDS011;13284;52.748;13.452;2022-07-18T00:39:25;2.67;;;2.43;;
25331;SDS011;13284;52.748;13.452;2022-07-18T00:41:50;4.20;;;2.67;;
25331;SDS011;13284;52.748;13.452;2022-07-18T00:44:23;3.40;;;2.50;;
25331;SDS011;13284;52.748;13.452;2022-07-18T00:46:51;2.77;;;2.27;;
25331;SDS011;13284;52.748;13.452;2022-07-18T00:49:17;2.60;;;2.37;;
25331;SDS011;13284;52.748;13.452;2022-07-18T00:51:44;4.73;;;3.57;;
25331;SDS011;13284;52.748;13.452;2022-07-18T00:54:09;2.60;;;2.40;;
25331;SDS011;13284;52.748;13.452;2022-07-18T00:56:35;3.00;;;2.70;;
25331;SDS011;13284;52.748;13.452;2022-07-18T00:59:01;2.60;;;2.40;;
25331;SDS011;13284;52.748;13.452;2022-07-18T01:01:27;3.60;;;2.90;;
25331;SDS011;13284;52.748;13.452;2022-07-18T01:04:08;2.37;;;2.17;;
25331;SDS011;13284;52.748;13.452;2022-07-18T01:06:35;4.00;;;2.60;;
25331;SDS011;13284;52.748;13.452;2022-07-18T01:09:00;3.27;;;2.60;;
25331;SDS011;13284;52.748;13.452;2022-07-18T01:11:26;3.50;;;2.80;;
25331;SDS011;13284;52.748;13.452;2022-07-18T01:13:51;3.10;;;2.83;;
25331;SDS011;13284;52.748;13.452;2022-07-18T01:16:18;3.07;;;2.70;;
25331;SDS011;13284;52.748;13.452;2022-07-18T01:18:44;3.00;;;2.50;;
25331;SDS011;13284;52.748;13.452;2022-07-18T01:21:11;3.00;;;2.80;;
25331;SDS011;13284;52.748;13.452;2022-07-18T01:23:37;2.60;;;2.40;;
25331;SDS011;13284;52.748;13.452;2022-07-18T01:26:03;3.47;;;3.10;;
25331;SDS011;13284;52.748;13.452;2022-07-18T01:28:29;3.07;;;2.77;;
25331;SDS011;13284;52.748;13.452;2022-07-18T01:30:54;3.83;;;2.80;;
25331;SDS011;13284;52.748;13.452;2022-07-18T01:33:20;4.00;;;3.17;;
25331;SDS011;13284;52.748;13.452;2022-07-18T01:35:45;2.70;;;2.50;;
25331;SDS011;13284;52.748;13.452;2022-07-18T01:38:11;4.83;;;2.80;;
25331;SDS011;13284;52.748;13.452;2022-07-18T01:40:37;3.23;;;2.90;;
25331;SDS011;13284;52.748;13.452;2022-07-18T01:43:03;2.47;;;2.27;;
25331;SDS011;13284;52.748;13.452;2022-07-18T01:45:29;3.27;;;2.73;;
25331;SDS011;13284;52.748;13.452;2022-07-18T01:47:54;3.33;;;3.03;;
25331;SDS011;13284;52.748;13.452;2022-07-18T01:50:20;2.83;;;2.60;;
25331;SDS011;13284;52.748;13.452;2022-07-18T01:52:45;3.90;;;2.97;;
25331;SDS011;13284;52.748;13.452;2022-07-18T01:55:11;3.00;;;2.70;;
25331;SDS011;13284;52.748;13.452;2022-07-18T01:57:37;3.30;;;3.00;;
25331;SDS011;13284;52.748;13.452;2022-07-18T02:00:04;3.10;;;2.80;;
25331;SDS011;13284;52.748;13.452;2022-07-18T02:02:31;2.70;;;2.50;;
25331;SDS011;13284;52.748;13.452;2022-07-18T02:04:57;4.87;;;2.70;;
25331;SDS011;13284;52.748;13.452;2022-07-18T02:07:29;3.57;;;3.10;;
25331;SDS011;13284;52.748;13.452;2022-07-18T02:09:57;3.57;;;3.00;;
25331;SDS011;13284;52.748;13.452;2022-07-18T02:12:23;3.87;;;3.00;;
25331;SDS011;13284;52.748;13.452;2022-07-18T02:14:48;3.07;;;2.87;;
25331;SDS011;13284;52.748;13.452;2022-07-18T02:17:14;3.20;;;2.90;;
25331;SDS011;13284;52.748;13.452;2022-07-18T02:19:40;3.60;;;2.67;;
25331;SDS011;13284;52.748;13.452;2022-07-18T02:22:05;3.03;;;2.77;;
25331;SDS011;13284;52.748;13.452;2022-07-18T02:24:31;3.67;;;2.90;;
25331;SDS011;13284;52.748;13.452;2022-07-18T02:26:57;3.50;;;3.20;;
25331;SDS011;13284;52.748;13.452;2022-07-18T02:29:23;2.93;;;2.73;;
25331;SDS011;13284;52.748;13.452;2022-07-18T02:31:48;4.80;;;3.47;;
25331;SDS011;13284;52.748;13.452;2022-07-18T02:34:14;3.33;;;3.00;;
25331;SDS011;13284;52.748;13.452;2022-07-18T02:36:40;4.30;;;3.13;;
25331;SDS011;13284;52.748;13.452;2022-07-18T02:39:06;2.67;;;2.47;;
25331;SDS011;13284;52.748;13.452;2022-07-18T02:41:33;4.87;;;2.90;;
25331;SDS011;13284;52.748;13.452;2022-07-18T02:43:58;5.23;;;3.10;;
25331;SDS011;13284;52.748;13.452;2022-07-18T02:46:25;3.80;;;3.50;;
25331;SDS011;13284;52.748;13.452;2022-07-18T02:48:50;3.40;;;3.10;;
25331;SDS011;13284;52.748;13.452;2022-07-18T02:51:16;3.07;;;2.87;;
25331;SDS011;13284;52.748;13.452;2022-07-18T02:53:41;3.70;;;3.40;;
25331;SDS011;13284;52.748;13.452;2022-07-18T02:56:07;3.07;;;2.77;;
25331;SDS011;13284;52.748;13.452;2022-07-18T02:58:32;3.70;;;3.40;;
25331;SDS011;13284;52.748;13.452;2022-07-18T03:00:58;4.10;;;3.40;;
25331;SDS011;13284;52.748;13.452;2022-07-18T03:03:24;3.40;;;3.10;;
25331;SDS011;13284;52.748;13.452;2022-07-18T03:05:49;4.20;;;3.23;;
25331;SDS011;13284;52.748;13.452;2022-07-18T03:08:15;4.80;;;3.37;;
25331;SDS011;13284;52.748;13.452;2022-07-18T03:10:40;4.60;;;3.20;;
25331;SDS011;13284;52.748;13.452;2022-07-18T03:13:06;3.57;;;3.27;;
25331;SDS011;13284;52.748;13.452;2022-07-18T03:15:31;3.90;;;3.30;;
25331;SDS011;13284;52.748;13.452;2022-07-18T03:17:57;3.60;;;3.27;;
25331;SDS011;13284;52.748;13.452;2022-07-18T03:20:22;4.23;;;3.67;;
25331;SDS011;13284;52.748;13.452;2022-07-18T03:22:48;3.17;;;2.87;;
25331;SDS011;13284;52.748;13.452;2022-07-18T03:25:13;3.60;;;2.90;;
25331;SDS011;13284;52.748;13.452;2022-07-18T03:27:39;3.30;;;3.00;;
25331;SDS011;13284;52.748;13.452;2022-07-18T03:30:05;3.40;;;3.10;;
25331;SDS011;13284;52.748;13.452;2022-07-18T03:32:31;4.33;;;3.27;;
25331;SDS011;13284;52.748;13.452;2022-07-18T03:34:56;4.27;;;2.97;;
25331;SDS011;13284;52.748;13.452;2022-07-18T03:37:21;3.87;;;3.40;;
25331;SDS011;13284;52.748;13.452;2022-07-18T03:39:47;3.47;;;3.17;;
25331;SDS011;13284;52.748;13.452;2022-07-18T03:42:13;3.07;;;2.70;;
25331;SDS011;13284;52.748;13.452;2022-07-18T03:44:38;5.87;;;3.47;;
25331;SDS011;13284;52.748;13.452;2022-07-18T03:47:04;3.80;;;3.40;;
25331;SDS011;13284;52.748;13.452;2022-07-18T03:49:29;3.73;;;3.03;;
25331;SDS011;13284;52.748;13.452;2022-07-18T03:51:55;3.77;;;3.20;;
25331;SDS011;13284;52.748;13.452;2022-07-18T03:54:20;2.97;;;2.77;;
25331;SDS011;13284;52.748;13.452;2022-07-18T03:56:47;6.03;;;3.83;;
25331;SDS011;13284;52.748;13.452;2022-07-18T03:59:12;6.00;;;3.73;;
25331;SDS011;13284;52.748;13.452;2022-07-18T04:01:38;7.40;;;3.50;;
25331;SDS011;13284;52.748;13.452;2022-07-18T04:04:03;3.93;;;3.53;;
25331;SDS011;13284;52.748;13.452;2022-07-18T04:06:29;4.00;;;3.07;;
25331;SDS011;13284;52.748;13.452;2022-07-18T04:08:55;8.57;;;3.73;;
25331;SDS011;13284;52.748;13.452;2022-07-18T04:11:20;4.13;;;3.77;;
25331;SDS011;13284;52.748;13.452;2022-07-18T04:13:49;3.40;;;3.10;;
25331;SDS011;13284;52.748;13.452;2022-07-18T04:16:15;3.70;;;3.40;;
25331;SDS011;13284;52.748;13.452;2022-07-18T04:18:41;4.23;;;3.87;;
25331;SDS011;13284;52.748;13.452;2022-07-18T04:21:06;4.97;;;4.17;;
25331;SDS011;13284;52.748;13.452;2022-07-18T04:23:32;3.70;;;3.10;;
25331;SDS011;13284;52.748;13.452;2022-07-18T04:25:57;3.50;;;3.20;;
25331;SDS011;13284;52.748;13.452;2022-07-18T04:28:23;3.73;;;3.43;;
25331;SDS011;13284;52.748;13.452;2022-07-18T04:30:48;3.57;;;3.27;;
25331;SDS011;13284;52.748;13.452;2022-07-18T04:33:14;7.57;;;3.77;;
25331;SDS011;13284;52.748;13.452;2022-07-18T04:35:39;6.50;;;3.80;;
25331;SDS011;13284;52.748;13.452;2022-07-18T04:38:07;4.13;;;3.60;;
25331;SDS011;13284;52.748;13.452;2022-07-18T04:40:34;3.80;;;3.43;;
25331;SDS011;13284;52.748;13.452;2022-07-18T04:43:00;4.63;;;3.63;;
25331;SDS011;13284;52.748;13.452;2022-07-18T04:45:26;3.70;;;3.30;;
25331;SDS011;13284;52.748;13.452;2022-07-18T04:47:52;5.53;;;3.63;;
25331;SDS011;13284;52.748;13.452;2022-07-18T04:50:20;3.40;;;3.10;;
25331;SDS011;13284;52.748;13.452;2022-07-18T04:52:47;3.47;;;3.17;;
25331;SDS011;13284;52.748;13.452;2022-07-18T04:55:13;2.87;;;2.57;;
25331;SDS011;13284;52.748;13.452;2022-07-18T04:57:41;3.43;;;3.13;;
25331;SDS011;13284;52.748;13.452;2022-07-18T05:00:11;3.17;;;2.87;;
25331;SDS011;13284;52.748;13.452;2022-07-18T05:02:39;4.13;;;2.90;;
25331;SDS011;13284;52.748;13.452;2022-07-18T05:05:06;4.73;;;3.07;;
25331;SDS011;13284;52.748;13.452;2022-07-18T05:07:32;4.03;;;3.40;;
25331;SDS011;13284;52.748;13.452;2022-07-18T05:09:57;3.20;;;2.90;;
25331;SDS011;13284;52.748;13.452;2022-07-18T05:12:23;3.53;;;2.90;;
25331;SDS011;13284;52.748;13.452;2022-07-18T05:14:48;4.33;;;2.53;;
25331;SDS011;13284;52.748;13.452;2022-07-18T05:17:15;3.00;;;2.70;;
25331;SDS011;13284;52.748;13.452;2022-07-18T05:19:41;2.97;;;2.40;;
25331;SDS011;13284;52.748;13.452;2022-07-18T05:22:06;2.60;;;2.40;;
25331;SDS011;13284;52.748;13.452;2022-07-18T05:24:31;6.37;;;4.40;;
25331;SDS011;13284;52.748;13.452;2022-07-18T05:26:57;4.27;;;2.83;;
25331;SDS011;13284;52.748;13.452;2022-07-18T05:29:22;3.10;;;2.50;;
25331;SDS011;13284;52.748;13.452;2022-07-18T05:31:48;3.43;;;2.60;;
25331;SDS011;13284;52.748;13.452;2022-07-18T05:34:13;4.40;;;3.07;;
25331;SDS011;13284;52.748;13.452;2022-07-18T05:36:39;2.97;;;2.70;;
25331;SDS011;13284;52.748;13.452;2022-07-18T05:39:04;2.40;;;2.10;;
25331;SDS011;13284;52.748;13.452;2022-07-18T05:41:30;2.77;;;2.57;;
25331;SDS011;13284;52.748;13.452;2022-07-18T05:43:56;4.17;;;2.77;;
25331;SDS011;13284;52.748;13.452;2022-07-18T05:46:21;3.67;;;3.13;;
25331;SDS011;13284;52.748;13.452;2022-07-18T05:48:47;3.73;;;2.97;;
25331;SDS011;13284;52.748;13.452;2022-07-18T05:51:13;2.53;;;2.37;;
25331;SDS011;13284;52.748;13.452;2022-07-18T05:53:38;3.90;;;3.27;;
25331;SDS011;13284;52.748;13.452;2022-07-18T05:56:04;4.23;;;3.37;;
25331;SDS011;13284;52.748;13.452;2022-07-18T05:58:30;5.43;;;3.03;;
25331;SDS011;13284;52.748;13.452;2022-07-18T06:00:55;3.10;;;2.67;;
25331;SDS011;13284;52.748;13.452;2022-07-18T06:03:21;2.33;;;2.13;;
25331;SDS011;13284;52.748;13.452;2022-07-18T06:05:46;3.63;;;2.47;;
25331;SDS011;13284;52.748;13.452;2022-07-18T06:08:12;2.60;;;2.40;;
25331;SDS011;13284;52.748;13.452;2022-07-18T06:10:37;2.83;;;2.57;;
25331;SDS011;13284;52.748;13.452;2022-07-18T06:13:03;3.73;;;2.30;;
25331;SDS011;13284;52.748;13.452;2022-07-18T06:15:28;2.70;;;2.30;;
25331;SDS011;13284;52.748;13.452;2022-07-18T06:17:54;3.60;;;2.90;;
25331;SDS011;13284;52.748;13.452;2022-07-18T06:20:19;3.10;;;2.80;;
25331;SDS011;13284;52.748;13.452;2022-07-18T06:22:45;2.97;;;2.67;;
25331;SDS011;13284;52.748;13.452;2022-07-18T06:25:11;3.20;;;3.00;;
25331;SDS011;13284;52.748;13.452;2022-07-18T06:27:37;3.13;;;2.83;;
25331;SDS011;13284;52.748;13.452;2022-07-18T06:30:03;2.20;;;1.90;;
25331;SDS011;13284;52.748;13.452;2022-07-18T06:32:30;2.97;;;2.70;;
25331;SDS011;13284;52.748;13.452;2022-07-18T06:34:55;2.00;;;1.53;;
25331;SDS011;13284;52.748;13.452;2022-07-18T06:37:21;1.83;;;1.70;;
25331;SDS011;13284;52.748;13.452;2022-07-18T06:39:46;1.80;;;1.63;;
25331;SDS011;13284;52.748;13.452;2022-07-18T06:42:12;2.20;;;2.00;;
25331;SDS011;13284;52.748;13.452;2022-07-18T06:44:37;2.33;;;2.00;;
25331;SDS011;13284;52.748;13.452;2022-07-18T06:47:03;3.03;;;2.80;;
25331;SDS011;13284;52.748;13.452;2022-07-18T06:49:28;2.23;;;2.07;;
25331;SDS011;13284;52.748;13.452;2022-07-18T06:51:54;1.60;;;1.50;;
25331;SDS011;13284;52.748;13.452;2022-07-18T06:54:20;2.30;;;1.93;;
25331;SDS011;13284;52.748;13.452;2022-07-18T06:56:51;2.20;;;2.00;;
25331;SDS011;13284;52.748;13.452;2022-07-18T06:59:16;3.07;;;2.77;;
25331;SDS011;13284;52.748;13.452;2022-07-18T07:01:42;4.90;;;2.43;;
25331;SDS011;13284;52.748;13.452;2022-07-18T07:04:07;2.27;;;2.07;;
25331;SDS011;13284;52.748;13.452;2022-07-18T07:06:33;2.17;;;1.83;;
25331;SDS011;13284;52.748;13.452;2022-07-18T07:08:58;3.43;;;1.90;;
25331;SDS011;13284;52.748;13.452;2022-07-18T07:11:24;3.60;;;1.97;;
25331;SDS011;13284;52.748;13.452;2022-07-18T07:13:49;2.43;;;2.07;;
25331;SDS011;13284;52.748;13.452;2022-07-18T07:16:15;2.73;;;1.80;;
25331;SDS011;13284;52.748;13.452;2022-07-18T07:18:40;1.63;;;1.53;;
25331;SDS011;13284;52.748;13.452;2022-07-18T07:21:06;3.27;;;2.30;;
25331;SDS011;13284;52.748;13.452;2022-07-18T07:23:33;3.93;;;2.63;;
25331;SDS011;13284;52.748;13.452;2022-07-18T07:25:58;2.20;;;1.97;;
25331;SDS011;13284;52.748;13.452;2022-07-18T07:28:24;3.93;;;2.23;;
25331;SDS011;13284;52.748;13.452;2022-07-18T07:30:49;2.10;;;1.70;;
25331;SDS011;13284;52.748;13.452;2022-07-18T07:33:15;2.63;;;1.87;;
25331;SDS011;13284;52.748;13.452;2022-07-18T07:35:41;2.40;;;1.70;;
25331;SDS011;13284;52.748;13.452;2022-07-18T07:38:07;2.43;;;1.90;;
25331;SDS011;13284;52.748;13.452;2022-07-18T07:40:32;2.07;;;1.80;;
25331;SDS011;13284;52.748;13.452;2022-07-18T07:43:05;1.63;;;1.53;;
25331;SDS011;13284;52.748;13.452;2022-07-18T07:45:31;3.10;;;2.10;;
25331;SDS011;13284;52.748;13.452;2022-07-18T07:47:57;1.70;;;1.60;;
25331;SDS011;13284;52.748;13.452;2022-07-18T07:50:22;2.63;;;1.97;;
25331;SDS011;13284;52.748;13.452;2022-07-18T07:52:48;4.97;;;2.43;;
25331;SDS011;13284;52.748;13.452;2022-07-18T07:55:14;1.83;;;1.73;;
25331;SDS011;13284;52.748;13.452;2022-07-18T07:57:39;2.63;;;1.50;;
25331;SDS011;13284;52.748;13.452;2022-07-18T08:00:05;4.33;;;1.93;;
25331;SDS011;13284;52.748;13.452;2022-07-18T08:02:33;2.30;;;2.10;;
25331;SDS011;13284;52.748;13.452;2022-07-18T08:04:58;1.97;;;1.70;;
25331;SDS011;13284;52.748;13.452;2022-07-18T08:07:24;2.30;;;2.03;;
25331;SDS011;13284;52.748;13.452;2022-07-18T08:09:50;1.70;;;1.60;;
25331;SDS011;13284;52.748;13.452;2022-07-18T08:12:15;3.70;;;2.00;;
25331;SDS011;13284;52.748;13.452;2022-07-18T08:14:41;3.40;;;2.17;;
25331;SDS011;13284;52.748;13.452;2022-07-18T08:17:07;3.10;;;1.87;;
25331;SDS011;13284;52.748;13.452;2022-07-18T08:19:32;2.20;;;2.00;;
25331;SDS011;13284;52.748;13.452;2022-07-18T08:21:58;4.00;;;2.03;;
25331;SDS011;13284;52.748;13.452;2022-07-18T08:24:24;3.83;;;2.30;;
25331;SDS011;13284;52.748;13.452;2022-07-18T08:26:49;3.47;;;2.90;;
25331;SDS011;13284;52.748;13.452;2022-07-18T08:29:15;3.57;;;2.63;;
25331;SDS011;13284;52.748;13.452;2022-07-18T08:31:40;3.90;;;3.20;;
25331;SDS011;13284;52.748;13.452;2022-07-18T08:34:06;4.60;;;2.90;;
25331;SDS011;13284;52.748;13.452;2022-07-18T08:36:31;6.03;;;3.60;;
25331;SDS011;13284;52.748;13.452;2022-07-18T08:38:57;2.93;;;2.63;;
25331;SDS011;13284;52.748;13.452;2022-07-18T08:41:23;7.57;;;2.30;;
25331;SDS011;13284;52.748;13.452;2022-07-18T08:43:49;3.93;;;2.27;;
25331;SDS011;13284;52.748;13.452;2022-07-18T08:46:16;3.03;;;2.73;;
25331;SDS011;13284;52.748;13.452;2022-07-18T08:48:46;3.93;;;2.63;;
25331;SDS011;13284;52.748;13.452;2022-07-18T08:51:11;3.40;;;2.97;;
25331;SDS011;13284;52.748;13.452;2022-07-18T08:53:37;2.70;;;2.43;;
25331;SDS011;13284;52.748;13.452;2022-07-18T08:56:03;3.13;;;2.83;;
25331;SDS011;13284;52.748;13.452;2022-07-18T08:58:30;3.70;;;2.90;;
25331;SDS011;13284;52.748;13.452;2022-07-18T09:00:55;5.00;;;3.03;;
25331;SDS011;13284;52.748;13.452;2022-07-18T09:03:23;3.80;;;2.80;;
25331;SDS011;13284;52.748;13.452;2022-07-18T09:06:01;4.87;;;3.03;;
25331;SDS011;13284;52.748;13.452;2022-07-18T09:08:29;4.63;;;2.10;;
25331;SDS011;13284;52.748;13.452;2022-07-18T09:10:56;3.60;;;2.50;;
25331;SDS011;13284;52.748;13.452;2022-07-18T09:18:34;2.80;;;2.10;;
25331;SDS011;13284;52.748;13.452;2022-07-18T09:21:03;2.67;;;2.43;;
25331;SDS011;13284;52.748;13.452;2022-07-18T09:23:35;2.70;;;2.43;;
25331;SDS011;13284;52.748;13.452;2022-07-18T09:26:06;3.60;;;2.63;;
25331;SDS011;13284;52.748;13.452;2022-07-18T09:28:49;3.13;;;2.57;;
25331;SDS011;13284;52.748;13.452;2022-07-18T09:31:20;2.83;;;2.63;;
25331;SDS011;13284;52.748;13.452;2022-07-18T09:33:53;4.27;;;2.47;;
25331;SDS011;13284;52.748;13.452;2022-07-18T09:36:23;3.23;;;2.00;;
25331;SDS011;13284;52.748;13.452;2022-07-18T09:38:49;3.87;;;2.10;;
25331;SDS011;13284;52.748;13.452;2022-07-18T09:41:14;3.27;;;2.97;;
25331;SDS011;13284;52.748;13.452;2022-07-18T09:43:40;3.40;;;2.70;;
25331;SDS011;13284;52.748;13.452;2022-07-18T09:46:06;4.20;;;2.97;;
25331;SDS011;13284;52.748;13.452;2022-07-18T09:48:33;2.90;;;2.60;;
25331;SDS011;13284;52.748;13.452;2022-07-18T09:51:00;4.43;;;2.97;;
25331;SDS011;13284;52.748;13.452;2022-07-18T09:53:32;4.20;;;3.10;;
25331;SDS011;13284;52.748;13.452;2022-07-18T09:56:05;4.20;;;3.30;;
25331;SDS011;13284;52.748;13.452;2022-07-18T09:58:33;7.27;;;3.50;;
25331;SDS011;13284;52.748;13.452;2022-07-18T10:01:00;3.77;;;3.47;;
25331;SDS011;13284;52.748;13.452;2022-07-18T10:03:28;4.23;;;3.83;;
25331;SDS011;13284;52.748;13.452;2022-07-18T10:05:55;6.20;;;3.70;;
25331;SDS011;13284;52.748;13.452;2022-07-18T10:08:22;4.27;;;3.50;;
25331;SDS011;13284;52.748;13.452;2022-07-18T10:10:50;5.93;;;4.00;;
25331;SDS011;13284;52.748;13.452;2022-07-18T10:13:17;4.63;;;3.17;;
25331;SDS011;13284;52.748;13.452;2022-07-18T10:15:44;4.17;;;3.50;;
25331;SDS011;13284;52.748;13.452;2022-07-18T10:18:13;3.67;;;3.20;;
25331;SDS011;13284;52.748;13.452;2022-07-18T10:20:54;6.70;;;3.80;;
25331;SDS011;13284;52.748;13.452;2022-07-18T10:31:20;3.83;;;3.40;;
25331;SDS011;13284;52.748;13.452;2022-07-18T10:33:52;3.67;;;3.27;;
25331;SDS011;13284;52.748;13.452;2022-07-18T10:36:20;4.77;;;3.50;;
25331;SDS011;13284;52.748;13.452;2022-07-18T10:57:26;3.93;;;3.13;;
25331;SDS011;13284;52.748;13.452;2022-07-18T11:18:19;4.00;;;3.17;;
25331;SDS011;13284;52.748;13.452;2022-07-18T11:20:45;6.30;;;3.60;;
25331;SDS011;13284;52.748;13.452;2022-07-18T11:23:18;4.63;;;3.33;;
25331;SDS011;13284;52.748;13.452;2022-07-18T11:25:46;4.57;;;3.67;;
25331;SDS011;13284;52.748;13.452;2022-07-18T11:28:13;3.47;;;2.87;;
25331;SDS011;13284;52.748;13.452;2022-07-18T11:30:38;3.93;;;2.87;;
25331;SDS011;13284;52.748;13.452;2022-07-18T11:33:05;3.80;;;2.73;;
25331;SDS011;13284;52.748;13.452;2022-07-18T11:35:30;4.50;;;3.43;;
25331;SDS011;13284;52.748;13.452;2022-07-18T11:37:56;4.90;;;3.83;;
25331;SDS011;13284;52.748;13.452;2022-07-18T11:40:28;2.93;;;2.60;;
25331;SDS011;13284;52.748;13.452;2022-07-18T11:42:55;4.13;;;3.23;;
25331;SDS011;13284;52.748;13.452;2022-07-18T11:45:21;3.53;;;2.80;;
25331;SDS011;13284;52.748;13.452;2022-07-18T11:47:51;3.27;;;2.97;;
25331;SDS011;13284;52.748;13.452;2022-07-18T11:50:25;4.83;;;2.50;;
25331;SDS011;13284;52.748;13.452;2022-07-18T11:52:59;2.70;;;2.50;;
25331;SDS011;13284;52.748;13.452;2022-07-18T11:55:34;3.03;;;2.73;;
25331;SDS011;13284;52.748;13.452;2022-07-18T11:58:08;3.23;;;2.93;;
25331;SDS011;13284;52.748;13.452;2022-07-18T12:00:38;3.33;;;2.70;;
25331;SDS011;13284;52.748;13.452;2022-07-18T12:03:06;2.87;;;2.60;;
25331;SDS011;13284;52.748;13.452;2022-07-18T12:05:35;3.20;;;2.47;;
25331;SDS011;13284;52.748;13.452;2022-07-18T12:11:08;2.27;;;2.07;;
25331;SDS011;13284;52.748;13.452;2022-07-18T12:13:47;3.00;;;2.27;;
25331;SDS011;13284;52.748;13.452;2022-07-18T12:21:47;2.70;;;2.20;;
25331;SDS011;13284;52.748;13.452;2022-07-18T12:32:38;2.67;;;2.30;;
25331;SDS011;13284;52.748;13.452;2022-07-18T12:35:34;3.27;;;2.37;;
25331;SDS011;13284;52.748;13.452;2022-07-18T12:38:08;2.93;;;2.33;;
25331;SDS011;13284;52.748;13.452;2022-07-18T12:40:43;6.00;;;3.63;;
25331;SDS011;13284;52.748;13.452;2022-07-18T12:43:28;2.60;;;2.10;;
25331;SDS011;13284;52.748;13.452;2022-07-18T12:46:07;4.93;;;2.60;;
25331;SDS011;13284;52.748;13.452;2022-07-18T12:48:35;2.60;;;2.40;;
25331;SDS011;13284;52.748;13.452;2022-07-18T12:51:02;2.40;;;2.20;;
25331;SDS011;13284;52.748;13.452;2022-07-18T12:53:33;2.70;;;1.93;;
25331;SDS011;13284;52.748;13.452;2022-07-18T12:56:01;2.20;;;2.00;;
25331;SDS011;13284;52.748;13.452;2022-07-18T12:58:27;2.27;;;2.07;;
25331;SDS011;13284;52.748;13.452;2022-07-18T13:00:52;3.00;;;2.30;;
25331;SDS011;13284;52.748;13.452;2022-07-18T13:03:20;3.13;;;2.30;;
25331;SDS011;13284;52.748;13.452;2022-07-18T13:05:45;2.90;;;2.10;;
25331;SDS011;13284;52.748;13.452;2022-07-18T13:08:11;7.30;;;2.50;;
25331;SDS011;13284;52.748;13.452;2022-07-18T13:10:40;2.70;;;1.90;;
25331;SDS011;13284;52.748;13.452;2022-07-18T13:13:06;2.73;;;2.53;;
25331;SDS011;13284;52.748;13.452;2022-07-18T13:15:33;3.77;;;2.80;;
25331;SDS011;13284;52.748;13.452;2022-07-18T13:18:00;2.67;;;2.20;;
25331;SDS011;13284;52.748;13.452;2022-07-18T13:20:26;3.67;;;2.20;;
25331;SDS011;13284;52.748;13.452;2022-07-18T13:22:52;2.77;;;2.50;;
25331;SDS011;13284;52.748;13.452;2022-07-18T13:25:17;2.30;;;2.10;;
25331;SDS011;13284;52.748;13.452;2022-07-18T13:27:44;2.30;;;2.10;;
25331;SDS011;13284;52.748;13.452;2022-07-18T13:30:10;3.80;;;3.40;;
25331;SDS011;13284;52.748;13.452;2022-07-18T13:32:35;2.83;;;2.50;;
25331;SDS011;13284;52.748;13.452;2022-07-18T13:35:01;3.83;;;2.70;;
25331;SDS011;13284;52.748;13.452;2022-07-18T13:37:28;2.47;;;2.27;;
25331;SDS011;13284;52.748;13.452;2022-07-18T13:39:53;2.83;;;2.63;;
25331;SDS011;13284;52.748;13.452;2022-07-18T13:42:20;2.93;;;2.57;;
25331;SDS011;13284;52.748;13.452;2022-07-18T13:44:46;2.30;;;2.10;;
25331;SDS011;13284;52.748;13.452;2022-07-18T13:47:12;2.50;;;2.30;;
25331;SDS011;13284;52.748;13.452;2022-07-18T13:49:38;2.80;;;2.50;;
25331;SDS011;13284;52.748;13.452;2022-07-18T13:52:04;3.87;;;2.43;;
25331;SDS011;13284;52.748;13.452;2022-07-18T13:54:29;3.90;;;2.80;;
25331;SDS011;13284;52.748;13.452;2022-07-18T13:56:55;3.40;;;2.40;;
25331;SDS011;13284;52.748;13.452;2022-07-18T13:59:21;2.63;;;2.43;;
25331;SDS011;13284;52.748;13.452;2022-07-18T14:01:46;3.37;;;2.80;;
25331;SDS011;13284;52.748;13.452;2022-07-18T14:04:12;4.07;;;2.60;;
25331;SDS011;13284;52.748;13.452;2022-07-18T14:06:38;2.97;;;2.67;;
25331;SDS011;13284;52.748;13.452;2022-07-18T14:09:04;2.57;;;2.13;;
25331;SDS011;13284;52.748;13.452;2022-07-18T14:11:30;2.40;;;2.20;;
25331;SDS011;13284;52.748;13.452;2022-07-18T14:13:57;2.30;;;2.10;;
25331;SDS011;13284;52.748;13.452;2022-07-18T14:16:23;3.10;;;2.80;;
25331;SDS011;13284;52.748;13.452;2022-07-18T14:18:49;3.13;;;2.70;;
25331;SDS011;13284;52.748;13.452;2022-07-18T14:21:15;2.87;;;2.60;;
25331;SDS011;13284;52.748;13.452;2022-07-18T14:23:40;2.63;;;2.43;;
25331;SDS011;13284;52.748;13.452;2022-07-18T14:26:06;3.90;;;3.47;;
25331;SDS011;13284;52.748;13.452;2022-07-18T14:28:31;3.37;;;2.73;;
25331;SDS011;13284;52.748;13.452;2022-07-18T14:30:57;2.83;;;2.53;;
25331;SDS011;13284;52.748;13.452;2022-07-18T14:33:22;3.60;;;2.27;;
25331;SDS011;13284;52.748;13.452;2022-07-18T14:35:48;2.80;;;2.60;;
25331;SDS011;13284;52.748;13.452;2022-07-18T14:38:13;2.73;;;2.50;;
25331;SDS011;13284;52.748;13.452;2022-07-18T14:40:39;3.17;;;2.60;;
25331;SDS011;13284;52.748;13.452;2022-07-18T14:43:04;3.07;;;2.87;;
25331;SDS011;13284;52.748;13.452;2022-07-18T14:45:30;2.13;;;1.97;;
25331;SDS011;13284;52.748;13.452;2022-07-18T14:47:55;2.87;;;2.67;;
25331;SDS011;13284;52.748;13.452;2022-07-18T14:50:21;3.30;;;2.73;;
25331;SDS011;13284;52.748;13.452;2022-07-18T14:52:46;3.13;;;2.47;;
25331;SDS011;13284;52.748;13.452;2022-07-18T14:55:12;2.60;;;2.23;;
25331;SDS011;13284;52.748;13.452;2022-07-18T14:57:37;2.73;;;2.00;;
25331;SDS011;13284;52.748;13.452;2022-07-18T15:00:04;3.20;;;2.20;;
25331;SDS011;13284;52.748;13.452;2022-07-18T15:02:31;2.43;;;2.23;;
25331;SDS011;13284;52.748;13.452;2022-07-18T15:04:57;2.80;;;2.60;;
25331;SDS011;13284;52.748;13.452;2022-07-18T15:07:22;3.00;;;2.33;;
25331;SDS011;13284;52.748;13.452;2022-07-18T15:09:48;3.00;;;2.70;;
25331;SDS011;13284;52.748;13.452;2022-07-18T15:12:13;2.60;;;2.20;;
25331;SDS011;13284;52.748;13.452;2022-07-18T15:14:40;2.70;;;2.37;;
25331;SDS011;13284;52.748;13.452;2022-07-18T15:17:05;4.57;;;2.30;;
25331;SDS011;13284;52.748;13.452;2022-07-18T15:19:31;3.10;;;2.30;;
25331;SDS011;13284;52.748;13.452;2022-07-18T15:21:56;3.13;;;2.87;;
25331;SDS011;13284;52.748;13.452;2022-07-18T15:24:22;4.97;;;2.97;;
25331;SDS011;13284;52.748;13.452;2022-07-18T15:26:47;2.60;;;2.40;;
25331;SDS011;13284;52.748;13.452;2022-07-18T15:29:13;5.30;;;2.60;;
25331;SDS011;13284;52.748;13.452;2022-07-18T15:31:39;2.77;;;2.40;;
25331;SDS011;13284;52.748;13.452;2022-07-18T15:34:05;3.43;;;2.40;;
25331;SDS011;13284;52.748;13.452;2022-07-18T15:36:30;3.07;;;2.70;;